createdAt,value
2018-12-15T00:00:22.541Z,27.37
2018-12-15T00:02:50.750Z,23.38
2018-12-15T00:05:18.987Z,22.20
2018-12-15T00:07:47.251Z,22.48
2018-12-15T00:10:15.418Z,21.23
2018-12-15T00:12:43.693Z,24.95
2018-12-15T00:15:11.849Z,26.35
2018-12-15T00:17:40.046Z,28.62
2018-12-15T00:20:08.359Z,18.57
2018-12-15T00:22:36.596Z,25.80
2018-12-15T00:25:05.124Z,19.92
2018-12-15T00:27:34.107Z,22.42
2018-12-15T00:30:03.859Z,22.32
2018-12-15T00:32:31.992Z,21.62
2018-12-15T00:35:01.403Z,20.15
2018-12-15T00:37:29.570Z,17.73
2018-12-15T00:39:57.872Z,18.37
2018-12-15T00:42:31.290Z,17.17
2018-12-15T00:44:59.546Z,16.35
2018-12-15T00:47:27.824Z,17.25
2018-12-15T00:49:55.980Z,18.67
2018-12-15T00:52:24.246Z,16.37
2018-12-15T00:54:52.513Z,18.60
2018-12-15T00:57:20.808Z,21.40
2018-12-15T00:59:48.968Z,21.85
2018-12-15T01:02:17.182Z,15.45
2018-12-15T01:04:45.460Z,18.45
2018-12-15T01:07:13.689Z,21.25
2018-12-15T01:09:41.917Z,19.27
2018-12-15T01:12:11.249Z,18.35
2018-12-15T01:17:20.471Z,21.07
2018-12-15T01:19:46.313Z,16.52
2018-12-15T01:22:14.573Z,16.80
2018-12-15T01:24:42.727Z,20.17
2018-12-15T01:27:10.856Z,20.32
2018-12-15T01:29:39.839Z,22.50
2018-12-15T01:32:08.097Z,22.80
2018-12-15T01:34:36.341Z,18.30
2018-12-15T01:37:05.271Z,19.02
2018-12-15T01:39:33.567Z,17.50
2018-12-15T01:42:01.923Z,17.30
2018-12-15T01:44:30.267Z,21.65
2018-12-15T01:46:58.475Z,18.50
2018-12-15T01:49:26.645Z,21.73
2018-12-15T01:51:55.164Z,20.48
2018-12-15T01:54:23.266Z,20.05
2018-12-15T01:56:51.405Z,14.90
2018-12-15T01:59:19.598Z,20.25
2018-12-15T02:01:48.002Z,13.30
2018-12-15T02:04:16.158Z,18.65
2018-12-15T02:06:44.671Z,14.05
2018-12-15T02:09:13.024Z,16.10
2018-12-15T02:11:41.188Z,12.78
2018-12-15T02:14:09.413Z,23.95
2018-12-15T02:16:37.675Z,13.83
2018-12-15T02:19:05.970Z,15.90
2018-12-15T02:21:34.216Z,12.90
2018-12-15T02:24:02.431Z,14.90
2018-12-15T02:26:30.639Z,13.80
2018-12-15T02:28:58.815Z,12.58
2018-12-15T02:31:27.010Z,13.50
2018-12-15T02:33:56.288Z,14.93
2018-12-15T02:36:24.426Z,15.35
2018-12-15T02:38:52.536Z,13.28
2018-12-15T02:41:20.774Z,13.00
2018-12-15T02:43:49.060Z,13.48
2018-12-15T02:46:17.335Z,9.80
2018-12-15T02:48:45.625Z,10.30
2018-12-15T02:51:13.869Z,9.70
2018-12-15T02:53:42.107Z,13.83
2018-12-15T02:56:11.140Z,13.13
2018-12-15T02:58:39.394Z,8.95
2018-12-15T03:01:07.730Z,8.45
2018-12-15T03:03:35.911Z,8.88
2018-12-15T03:06:05.507Z,6.90
2018-12-15T03:08:33.760Z,10.20
2018-12-15T03:11:01.885Z,7.00
2018-12-15T03:13:30.239Z,9.50
2018-12-15T03:15:58.437Z,7.90
2018-12-15T03:18:26.546Z,7.92
2018-12-15T03:21:01.418Z,9.00
2018-12-15T03:23:29.730Z,7.50
2018-12-15T03:25:59.306Z,9.20
2018-12-15T03:28:27.519Z,9.75
2018-12-15T03:30:57.261Z,16.82
2018-12-15T03:33:25.840Z,8.08
2018-12-15T03:35:54.176Z,9.28
2018-12-15T03:38:22.430Z,12.47
2018-12-15T03:40:50.657Z,8.93
2018-12-15T03:43:18.931Z,10.38
2018-12-15T03:45:47.154Z,10.32
2018-12-15T03:48:15.363Z,11.43
2018-12-15T03:50:43.600Z,13.25
2018-12-15T03:53:12.390Z,11.10
2018-12-15T03:55:41.224Z,9.33
2018-12-15T03:58:09.456Z,13.62
2018-12-15T04:00:38.612Z,9.68
2018-12-15T04:03:06.750Z,7.65
2018-12-15T04:05:39.071Z,10.50
2018-12-15T04:08:08.119Z,9.55
2018-12-15T04:10:36.302Z,15.38
2018-12-15T04:13:05.485Z,12.13
2018-12-15T04:15:33.762Z,9.55
2018-12-15T04:18:03.839Z,7.25
2018-12-15T04:20:32.592Z,7.72
2018-12-15T04:23:00.823Z,15.43
2018-12-15T04:25:29.723Z,12.20
2018-12-15T04:27:59.038Z,12.10
2018-12-15T04:30:27.289Z,9.68
2018-12-15T04:32:55.444Z,11.22
2018-12-15T04:35:23.827Z,10.95
2018-12-15T04:37:52.014Z,12.05
2018-12-15T04:40:20.586Z,10.48
2018-12-15T04:42:48.833Z,14.63
2018-12-15T04:45:17.159Z,8.98
2018-12-15T04:47:45.393Z,13.10
2018-12-15T04:50:14.099Z,9.75
2018-12-15T04:52:43.086Z,10.20
2018-12-15T04:55:11.240Z,10.08
2018-12-15T04:57:39.484Z,14.10
2018-12-15T05:00:07.951Z,12.45
2018-12-15T05:02:36.152Z,10.03
2018-12-15T05:05:04.630Z,11.57
2018-12-15T05:07:32.938Z,12.80
2018-12-15T05:10:01.794Z,13.22
2018-12-15T05:12:30.176Z,10.95
2018-12-15T05:14:58.353Z,11.73
2018-12-15T05:17:26.552Z,8.50
2018-12-15T05:19:54.812Z,11.60
2018-12-15T05:22:23.112Z,9.33
2018-12-15T05:24:52.030Z,10.82
2018-12-15T05:27:20.250Z,9.88
2018-12-15T05:29:48.555Z,9.43
2018-12-15T05:32:16.868Z,13.83
2018-12-15T05:34:45.196Z,13.03
2018-12-15T05:37:13.378Z,14.38
2018-12-15T05:39:42.520Z,10.95
2018-12-15T05:42:10.758Z,15.48
2018-12-15T05:44:38.998Z,10.60
2018-12-15T05:47:08.877Z,11.97
2018-12-15T05:49:37.113Z,14.45
2018-12-15T05:52:05.286Z,11.60
2018-12-15T05:54:33.505Z,18.62
2018-12-15T05:57:01.698Z,13.43
2018-12-15T05:59:29.947Z,14.83
2018-12-15T06:01:58.915Z,16.00
2018-12-15T06:04:27.022Z,16.42
2018-12-15T06:06:55.177Z,12.10
2018-12-15T06:09:23.367Z,16.90
2018-12-15T06:11:51.683Z,16.50
2018-12-15T06:14:19.987Z,19.17
2018-12-15T06:16:48.181Z,15.43
2018-12-15T06:19:16.360Z,16.80
2018-12-15T06:21:44.647Z,15.90
2018-12-15T06:24:12.893Z,19.45
2018-12-15T06:26:41.186Z,17.70
2018-12-15T06:29:09.359Z,21.30
2018-12-15T06:31:37.533Z,15.55
2018-12-15T06:34:05.679Z,16.07
2018-12-15T06:36:33.919Z,15.60
2018-12-15T06:39:02.135Z,15.25
2018-12-15T06:41:30.383Z,22.93
2018-12-15T06:43:59.351Z,20.50
2018-12-15T06:46:27.596Z,22.00
2018-12-15T06:48:55.789Z,25.40
2018-12-15T06:51:23.939Z,20.77
2018-12-15T06:53:52.141Z,13.30
2018-12-15T06:56:24.584Z,13.55
2018-12-15T06:58:52.771Z,16.75
2018-12-15T07:01:21.064Z,15.58
2018-12-15T07:03:50.371Z,15.95
2018-12-15T07:06:18.557Z,18.30
2018-12-15T07:08:46.777Z,17.82
2018-12-15T07:11:14.989Z,14.47
2018-12-15T07:13:43.929Z,17.80
2018-12-15T07:16:12.123Z,16.57
2018-12-15T07:18:44.828Z,17.05
2018-12-15T07:21:10.634Z,17.30
2018-12-15T07:23:38.899Z,18.82
2018-12-15T07:26:08.391Z,16.32
2018-12-15T07:28:36.510Z,22.93
2018-12-15T07:31:06.083Z,20.75
2018-12-15T07:33:35.996Z,27.05
2018-12-15T07:36:04.374Z,21.85
2018-12-15T07:38:32.637Z,19.77
2018-12-15T07:41:01.865Z,19.30
2018-12-15T07:43:29.973Z,16.15
2018-12-15T07:45:58.221Z,16.77
2018-12-15T07:48:26.455Z,16.67
2018-12-15T07:50:54.645Z,16.65
2018-12-15T07:53:22.943Z,15.15
2018-12-15T07:55:51.163Z,17.05
2018-12-15T07:58:19.422Z,15.98
2018-12-15T08:00:47.659Z,12.20
2018-12-15T08:03:15.864Z,19.10
2018-12-15T08:05:45.018Z,18.52
2018-12-15T08:08:13.160Z,16.32
2018-12-15T08:11:51.198Z,14.05
2018-12-15T08:14:19.568Z,17.98
2018-12-15T08:16:48.924Z,15.50
2018-12-15T08:19:17.288Z,15.15
2018-12-15T08:21:45.549Z,15.05
2018-12-15T08:24:13.853Z,16.65
2018-12-15T08:26:42.118Z,16.20
2018-12-15T08:29:10.323Z,15.13
2018-12-15T08:31:38.555Z,15.72
2018-12-15T08:34:07.167Z,16.90
2018-12-15T08:36:35.367Z,15.80
2018-12-15T08:39:06.096Z,17.07
2018-12-15T08:41:34.854Z,15.85
2018-12-15T08:44:03.268Z,15.23
2018-12-15T08:46:31.500Z,12.40
2018-12-15T08:49:04.614Z,20.70
2018-12-15T08:51:30.770Z,18.82
2018-12-15T08:53:59.078Z,20.88
2018-12-15T08:56:27.394Z,13.10
2018-12-15T08:58:55.511Z,18.27
2018-12-15T09:01:23.602Z,16.95
2018-12-15T09:03:51.882Z,17.02
2018-12-15T09:06:20.225Z,19.12
2018-12-15T09:08:48.362Z,20.05
2018-12-15T09:11:16.544Z,16.20
2018-12-15T09:13:44.831Z,17.05
2018-12-15T09:16:13.108Z,17.23
2018-12-15T09:18:41.374Z,19.32
2018-12-15T09:21:09.750Z,16.57
2018-12-15T09:23:37.954Z,15.58
2018-12-15T09:26:06.197Z,20.52
2018-12-15T09:28:34.482Z,18.55
2018-12-15T09:31:02.719Z,17.45
2018-12-15T09:33:30.951Z,21.23
2018-12-15T09:35:59.422Z,17.35
2018-12-15T09:38:27.583Z,26.37
2018-12-15T09:40:57.617Z,15.30
2018-12-15T09:43:26.121Z,18.48
2018-12-15T09:45:54.400Z,18.67
2018-12-15T09:48:22.660Z,22.17
2018-12-15T09:50:51.295Z,20.50
2018-12-15T09:53:23.157Z,17.73
2018-12-15T09:55:59.170Z,20.68
2018-12-15T09:58:27.458Z,17.10
2018-12-15T10:03:38.372Z,23.10
2018-12-15T10:06:06.839Z,20.77
2018-12-15T10:08:34.995Z,23.90
2018-12-15T10:11:03.672Z,23.65
2018-12-15T10:13:31.857Z,21.90
2018-12-15T10:16:00.143Z,20.92
2018-12-15T10:18:28.386Z,20.95
2018-12-15T10:20:56.629Z,18.42
2018-12-15T10:23:24.872Z,22.25
2018-12-15T10:25:53.130Z,18.55
2018-12-15T10:28:21.504Z,20.30
2018-12-15T10:30:56.011Z,22.50
2018-12-15T10:33:24.485Z,23.32
2018-12-15T10:35:53.048Z,21.35
2018-12-15T10:38:22.190Z,22.13
2018-12-15T10:40:50.464Z,20.23
2018-12-15T10:43:18.790Z,23.95
2018-12-15T10:45:47.058Z,18.85
2018-12-15T10:48:15.348Z,25.05
2018-12-15T10:50:44.373Z,21.00
2018-12-15T10:53:12.670Z,23.12
2018-12-15T10:55:41.134Z,25.15
2018-12-15T10:58:09.406Z,26.23
2018-12-15T11:00:42.900Z,20.15
2018-12-15T11:03:11.154Z,23.95
2018-12-15T11:05:40.891Z,34.85
2018-12-15T11:08:09.108Z,32.63
2018-12-15T11:10:37.312Z,22.82
2018-12-15T11:13:05.654Z,22.50
2018-12-15T11:15:34.738Z,19.98
2018-12-15T11:18:03.002Z,16.23
2018-12-15T11:20:31.228Z,21.68
2018-12-15T11:22:59.478Z,23.98
2018-12-15T11:25:28.961Z,21.68
2018-12-15T11:27:57.362Z,19.37
2018-12-15T11:30:25.585Z,20.95
2018-12-15T11:32:53.721Z,21.95
2018-12-15T11:35:22.221Z,31.40
2018-12-15T11:37:50.513Z,26.77
2018-12-15T11:40:18.848Z,61.80
2018-12-15T11:42:47.101Z,21.97
2018-12-15T11:45:15.441Z,22.27
2018-12-15T11:47:50.365Z,20.20
2018-12-15T11:50:35.387Z,26.55
2018-12-15T11:53:04.233Z,22.50
2018-12-15T11:55:32.438Z,23.07
2018-12-15T11:58:00.695Z,19.70
2018-12-15T12:00:29.085Z,24.20
2018-12-15T12:02:58.368Z,22.25
2018-12-15T12:05:26.500Z,23.12
2018-12-15T12:07:54.674Z,22.77
2018-12-15T12:10:24.142Z,26.17
2018-12-15T12:12:52.417Z,23.98
2018-12-15T12:15:20.665Z,25.12
2018-12-15T12:17:49.228Z,28.87
2018-12-15T12:20:17.376Z,19.62
2018-12-15T12:22:45.614Z,27.37
2018-12-15T12:25:13.781Z,27.22
2018-12-15T12:27:41.946Z,28.27
2018-12-15T12:30:10.137Z,24.00
2018-12-15T12:32:38.401Z,23.60
2018-12-15T12:35:06.699Z,26.00
2018-12-15T12:37:34.929Z,27.87
2018-12-15T12:40:03.919Z,22.85
2018-12-15T12:42:32.084Z,23.10
2018-12-15T12:45:00.314Z,24.18
2018-12-15T12:47:28.484Z,21.82
2018-12-15T12:49:57.367Z,28.85
2018-12-15T12:52:25.610Z,26.82
2018-12-15T12:54:53.740Z,27.73
2018-12-15T12:57:21.934Z,27.75
2018-12-15T12:59:50.077Z,26.80
2018-12-15T13:02:18.343Z,24.65
2018-12-15T13:04:46.598Z,21.82
2018-12-15T13:07:14.888Z,27.15
2018-12-15T13:09:43.052Z,34.20
2018-12-15T13:12:11.399Z,27.60
2018-12-15T13:14:39.668Z,30.55
2018-12-15T13:17:10.793Z,22.87
2018-12-15T13:19:43.830Z,25.12
2018-12-15T13:22:12.055Z,26.57
2018-12-15T13:24:40.525Z,24.60
2018-12-15T13:27:09.588Z,31.77
2018-12-15T13:29:37.997Z,27.20
2018-12-15T13:32:06.351Z,27.37
2018-12-15T13:34:34.468Z,25.00
2018-12-15T13:37:03.233Z,27.50
2018-12-15T13:39:31.556Z,27.22
2018-12-15T13:41:59.801Z,23.83
2018-12-15T13:44:28.020Z,21.80
2018-12-15T13:46:56.257Z,29.02
2018-12-15T13:49:25.574Z,29.10
2018-12-15T13:51:53.961Z,22.60
2018-12-15T13:54:22.305Z,26.07
2018-12-15T13:56:50.646Z,29.72
2018-12-15T13:59:19.062Z,24.92
2018-12-15T14:01:47.575Z,26.68
2018-12-15T14:04:16.085Z,32.45
2018-12-15T14:06:44.365Z,28.98
2018-12-15T14:09:13.000Z,25.05
2018-12-15T14:11:41.158Z,24.35
2018-12-15T14:14:09.276Z,26.85
2018-12-15T14:16:37.470Z,25.30
2018-12-15T14:19:05.662Z,28.57
2018-12-15T14:21:34.770Z,25.52
2018-12-15T14:24:02.948Z,26.50
2018-12-15T14:26:34.622Z,39.38
2018-12-15T14:29:02.877Z,23.07
2018-12-15T14:31:31.210Z,30.40
2018-12-15T14:33:59.501Z,32.93
2018-12-15T14:36:27.720Z,35.80
2018-12-15T14:38:56.158Z,35.30
2018-12-15T14:41:24.385Z,30.48
2018-12-15T14:43:52.590Z,36.53
2018-12-15T14:46:20.816Z,30.68
2018-12-15T14:48:49.039Z,25.70
2018-12-15T14:51:17.366Z,29.92
2018-12-15T14:53:45.590Z,27.13
2018-12-15T14:56:13.915Z,32.33
2018-12-15T14:58:42.538Z,24.80
2018-12-15T15:01:11.128Z,25.52
2018-12-15T15:03:40.727Z,29.92
2018-12-15T15:06:09.091Z,32.03
2018-12-15T15:08:37.527Z,27.80
2018-12-15T15:11:06.915Z,22.50
2018-12-15T15:13:35.293Z,26.75
2018-12-15T15:16:03.737Z,29.42
2018-12-15T15:18:32.328Z,29.15
2018-12-15T15:21:00.554Z,29.95
2018-12-15T15:23:28.977Z,31.37
2018-12-15T15:25:57.611Z,29.90
2018-12-15T15:28:26.327Z,31.02
2018-12-15T15:30:55.204Z,28.98
2018-12-15T15:33:23.617Z,24.25
2018-12-15T15:35:52.392Z,23.75
2018-12-15T15:38:24.082Z,37.28
2018-12-15T15:40:52.439Z,28.15
2018-12-15T15:43:20.718Z,31.02
2018-12-15T15:45:49.121Z,30.35
2018-12-15T15:48:22.867Z,27.27
2018-12-15T15:50:57.124Z,29.80
2018-12-15T15:53:25.745Z,28.83
2018-12-15T15:55:54.031Z,26.50
2018-12-15T15:58:23.353Z,29.72
2018-12-15T16:00:52.969Z,32.05
2018-12-15T16:03:21.227Z,32.15
2018-12-15T16:05:49.360Z,31.50
2018-12-15T16:08:17.644Z,25.43
2018-12-15T16:10:45.873Z,33.98
2018-12-15T16:13:14.077Z,26.97
2018-12-15T16:15:42.295Z,29.30
2018-12-15T16:18:10.600Z,31.23
2018-12-15T16:20:43.125Z,31.80
2018-12-15T16:23:09.113Z,30.17
2018-12-15T16:25:37.301Z,31.15
2018-12-15T16:28:05.428Z,33.78
2018-12-15T16:30:33.688Z,31.20
2018-12-15T16:33:02.029Z,32.48
2018-12-15T16:35:30.280Z,30.65
2018-12-15T16:37:58.841Z,39.05
2018-12-15T16:40:26.978Z,29.23
2018-12-15T16:42:55.194Z,40.23
2018-12-15T16:45:23.309Z,33.70
2018-12-15T16:47:51.606Z,31.35
2018-12-15T16:50:19.798Z,31.17
2018-12-15T16:52:48.214Z,34.80
2018-12-15T16:55:19.016Z,33.92
2018-12-15T16:57:47.318Z,27.65
2018-12-15T17:00:15.584Z,35.38
2018-12-15T17:02:44.485Z,34.10
2018-12-15T17:05:13.374Z,34.15
2018-12-15T17:07:41.538Z,37.03
2018-12-15T17:10:10.148Z,31.27
2018-12-15T17:12:38.407Z,30.85
2018-12-15T17:15:08.236Z,41.28
2018-12-15T17:17:36.474Z,34.35
2018-12-15T17:20:05.281Z,36.60
2018-12-15T17:22:33.543Z,27.02
2018-12-15T17:25:01.902Z,40.70
2018-12-15T17:27:31.690Z,41.98
2018-12-15T17:30:00.064Z,37.45
2018-12-15T17:32:28.349Z,40.85
2018-12-15T17:34:56.776Z,43.23
2018-12-15T17:37:25.012Z,38.78
2018-12-15T17:39:53.135Z,38.02
2018-12-15T17:42:21.320Z,38.35
2018-12-15T17:44:49.541Z,46.55
2018-12-15T17:47:18.556Z,39.50
2018-12-15T17:49:46.862Z,43.95
2018-12-15T17:52:15.120Z,35.23
2018-12-15T17:54:43.314Z,42.85
2018-12-15T17:57:11.605Z,42.20
2018-12-15T17:59:39.998Z,40.48
2018-12-15T18:02:08.326Z,45.23
2018-12-15T18:04:36.714Z,42.15
2018-12-15T18:07:05.720Z,49.98
2018-12-15T18:09:34.617Z,37.00
2018-12-15T18:12:03.002Z,38.42
2018-12-15T18:14:31.158Z,39.10
2018-12-15T18:16:59.544Z,39.03
2018-12-15T18:19:28.036Z,49.83
2018-12-15T18:21:56.368Z,38.08
2018-12-15T18:24:24.689Z,39.13
2018-12-15T18:26:52.923Z,46.28
2018-12-15T18:29:21.153Z,44.77
2018-12-15T18:31:49.377Z,37.90
2018-12-15T18:34:17.698Z,42.75
2018-12-15T18:36:45.990Z,35.70
2018-12-15T18:39:15.062Z,41.42
2018-12-15T18:41:43.347Z,42.43
2018-12-15T18:44:11.615Z,38.00
2018-12-15T18:46:41.097Z,41.88
2018-12-15T18:49:09.376Z,44.63
2018-12-15T18:51:37.531Z,39.20
2018-12-15T18:54:05.804Z,44.10
2018-12-15T18:56:34.170Z,35.00
2018-12-15T18:59:02.601Z,54.40
2018-12-15T19:01:30.911Z,38.23
2018-12-15T19:03:59.222Z,37.80
2018-12-15T19:06:28.449Z,37.23
2018-12-15T19:08:56.678Z,57.50
2018-12-15T19:11:25.335Z,39.63
2018-12-15T19:13:53.553Z,38.70
2018-12-15T19:16:21.824Z,39.20
2018-12-15T19:18:49.997Z,36.05
2018-12-15T19:21:22.980Z,38.58
2018-12-15T19:23:48.513Z,34.58
2018-12-15T19:26:16.714Z,37.88
2018-12-15T19:28:44.908Z,42.30
2018-12-15T19:31:13.195Z,41.25
2018-12-15T19:33:41.767Z,41.88
2018-12-15T19:36:11.599Z,42.27
2018-12-15T19:38:40.145Z,46.35
2018-12-15T19:43:45.798Z,48.48
2018-12-15T19:46:14.745Z,45.33
2018-12-15T19:48:43.610Z,51.92
2018-12-15T19:51:12.021Z,41.23
2018-12-15T19:53:41.383Z,47.23
2018-12-15T19:56:11.088Z,44.98
2018-12-15T19:58:39.664Z,45.78
2018-12-15T20:01:08.887Z,44.75
2018-12-15T20:03:37.510Z,45.38
2018-12-15T20:06:10.582Z,55.88
2018-12-15T20:08:39.222Z,46.50
2018-12-15T20:11:07.975Z,46.80
2018-12-15T20:13:36.446Z,50.30
2018-12-15T20:16:04.811Z,38.65
2018-12-15T20:18:33.053Z,51.37
2018-12-15T20:21:01.707Z,50.67
2018-12-15T20:23:30.096Z,43.20
2018-12-15T20:25:58.354Z,48.00
2018-12-15T20:28:27.550Z,56.20
2018-12-15T20:30:55.827Z,46.55
2018-12-15T20:33:24.217Z,48.70
2018-12-15T20:35:52.576Z,37.30
2018-12-15T20:38:21.421Z,49.30
2018-12-15T20:40:49.628Z,42.13
2018-12-15T20:43:18.524Z,44.40
2018-12-15T20:45:47.528Z,46.50
2018-12-15T20:48:15.942Z,50.60
2018-12-15T20:50:44.317Z,48.00
2018-12-15T20:53:12.701Z,48.15
2018-12-15T20:55:41.504Z,47.20
2018-12-15T20:58:09.652Z,52.75
2018-12-15T21:00:37.878Z,41.98
2018-12-15T21:03:06.167Z,53.25
2018-12-15T21:05:36.817Z,45.30
2018-12-15T21:08:04.851Z,48.65
2018-12-15T21:10:33.543Z,54.85
2018-12-15T21:13:01.798Z,55.65
2018-12-15T21:15:32.978Z,50.78
2018-12-15T21:18:01.692Z,51.65
2018-12-15T21:20:30.075Z,51.42
2018-12-15T21:22:58.582Z,48.15
2018-12-15T21:25:26.848Z,49.20
2018-12-15T21:27:55.352Z,49.30
2018-12-15T21:30:23.649Z,65.45
2018-12-15T21:32:52.070Z,58.10
2018-12-15T21:35:20.633Z,62.48
2018-12-15T21:37:48.871Z,59.45
2018-12-15T21:40:17.240Z,59.00
2018-12-15T21:42:45.464Z,58.17
2018-12-15T21:45:13.887Z,51.73
2018-12-15T21:47:42.980Z,57.20
2018-12-15T21:50:12.577Z,55.12
2018-12-15T21:52:41.103Z,46.40
2018-12-15T21:55:09.551Z,53.87
2018-12-15T21:57:38.177Z,63.33
2018-12-15T22:00:06.671Z,57.35
2018-12-15T22:02:36.693Z,67.70
2018-12-15T22:05:05.636Z,56.75
2018-12-15T22:07:35.675Z,56.55
2018-12-15T22:10:04.679Z,58.20
2018-12-15T22:12:33.472Z,69.15
2018-12-15T22:15:01.705Z,60.20
2018-12-15T22:17:29.941Z,59.08
2018-12-15T22:19:58.193Z,64.30
2018-12-15T22:22:26.473Z,55.15
2018-12-15T22:24:54.824Z,51.13
2018-12-15T22:27:23.157Z,60.30
2018-12-15T22:29:51.359Z,62.78
2018-12-15T22:32:19.623Z,58.50
2018-12-15T22:34:47.817Z,55.40
2018-12-15T22:37:16.207Z,48.17
2018-12-15T22:39:44.417Z,66.15
2018-12-15T22:42:12.969Z,91.75
2018-12-15T22:44:41.136Z,61.25
2018-12-15T22:47:12.685Z,56.20
2018-12-15T22:49:41.607Z,60.38
2018-12-15T22:52:10.249Z,54.83
2018-12-15T22:54:39.653Z,68.57
2018-12-15T22:57:09.061Z,60.98
2018-12-15T22:59:37.625Z,60.65
2018-12-15T23:02:05.900Z,54.42
2018-12-15T23:04:34.195Z,62.40
2018-12-15T23:07:02.502Z,63.48
2018-12-15T23:09:30.741Z,46.50
2018-12-15T23:12:09.595Z,56.37
2018-12-15T23:14:38.311Z,67.95
2018-12-15T23:20:48.787Z,60.17
2018-12-15T23:23:19.878Z,60.50
2018-12-15T23:25:48.061Z,52.95
2018-12-15T23:28:16.337Z,61.08
2018-12-15T23:30:44.687Z,62.00
2018-12-15T23:33:13.220Z,57.95
2018-12-15T23:35:42.007Z,54.38
2018-12-15T23:38:10.275Z,58.10
2018-12-15T23:40:38.534Z,55.83
2018-12-15T23:43:06.863Z,62.48
2018-12-15T23:45:35.048Z,51.53
2018-12-15T23:48:03.351Z,61.10
2018-12-15T23:50:31.642Z,55.28
2018-12-15T23:53:01.151Z,59.90
2018-12-15T23:55:29.369Z,59.05
2018-12-15T23:57:57.691Z,67.37
